createdAt,value
2017-10-24T00:00:35.675Z,8.70
2017-10-24T00:03:02.186Z,8.70
2017-10-24T00:05:28.647Z,8.60
2017-10-24T00:07:55.056Z,8.70
2017-10-24T00:10:21.514Z,8.60
2017-10-24T00:12:47.948Z,8.60
2017-10-24T00:15:14.408Z,8.70
2017-10-24T00:17:40.863Z,8.70
2017-10-24T00:20:07.304Z,8.70
2017-10-24T00:22:33.747Z,8.70
2017-10-24T00:25:00.912Z,8.70
2017-10-24T00:27:28.179Z,8.70
2017-10-24T00:29:55.383Z,8.70
2017-10-24T00:32:21.852Z,8.70
2017-10-24T00:34:48.304Z,8.70
2017-10-24T00:37:15.688Z,8.70
2017-10-24T00:39:42.120Z,8.70
2017-10-24T00:42:08.557Z,8.70
2017-10-24T00:44:35.036Z,8.70
2017-10-24T00:47:02.424Z,8.70
2017-10-24T00:49:28.892Z,8.80
2017-10-24T00:51:56.227Z,8.70
2017-10-24T00:54:22.660Z,8.70
2017-10-24T00:56:49.208Z,8.70
2017-10-24T00:59:16.354Z,8.80
2017-10-24T01:01:42.821Z,8.70
2017-10-24T01:04:10.003Z,8.80
2017-10-24T01:06:36.488Z,8.70
2017-10-24T01:09:02.919Z,8.70
2017-10-24T01:11:29.364Z,8.80
2017-10-24T01:13:55.831Z,8.80
2017-10-24T01:16:23.016Z,8.80
2017-10-24T01:18:49.468Z,8.80
2017-10-24T01:21:15.888Z,8.80
2017-10-24T01:23:42.356Z,8.80
2017-10-24T01:26:08.807Z,8.80
2017-10-24T01:28:35.239Z,8.80
2017-10-24T01:31:01.811Z,8.80
2017-10-24T01:33:28.970Z,8.80
2017-10-24T01:35:56.219Z,8.90
2017-10-24T01:38:22.655Z,8.90
2017-10-24T01:40:49.089Z,8.90
2017-10-24T01:43:17.007Z,8.90
2017-10-24T01:45:43.432Z,8.70
2017-10-24T01:48:09.877Z,8.90
2017-10-24T01:50:36.309Z,8.90
2017-10-24T01:53:02.761Z,8.90
2017-10-24T01:55:29.193Z,8.80
2017-10-24T01:57:56.768Z,8.80
2017-10-24T02:00:23.243Z,8.80
2017-10-24T02:02:49.720Z,8.90
2017-10-24T02:05:16.907Z,8.90
2017-10-24T02:07:43.460Z,8.90
2017-10-24T02:10:09.951Z,8.90
2017-10-24T02:12:37.119Z,8.90
2017-10-24T02:15:03.584Z,8.90
2017-10-24T02:17:30.057Z,8.90
2017-10-24T02:19:56.499Z,8.90
2017-10-24T02:22:22.950Z,8.80
2017-10-24T02:24:50.119Z,8.90
2017-10-24T02:27:17.343Z,8.90
2017-10-24T02:29:43.788Z,8.90
2017-10-24T02:32:10.290Z,8.80
2017-10-24T02:34:36.757Z,8.90
2017-10-24T02:37:03.221Z,8.80
2017-10-24T02:39:30.429Z,8.90
2017-10-24T02:41:56.903Z,8.80
2017-10-24T02:44:23.331Z,8.80
2017-10-24T02:46:49.759Z,8.80
2017-10-24T02:49:16.219Z,8.80
2017-10-24T02:51:42.627Z,8.90
2017-10-24T02:54:09.093Z,8.90
2017-10-24T02:56:35.565Z,8.90
2017-10-24T02:59:02.013Z,8.90
2017-10-24T03:01:28.464Z,8.90
2017-10-24T03:03:54.897Z,8.90
2017-10-24T03:06:21.361Z,8.90
2017-10-24T03:08:47.803Z,8.80
2017-10-24T03:11:14.227Z,8.90
2017-10-24T03:13:48.020Z,8.90
2017-10-24T03:16:14.448Z,9.00
2017-10-24T03:18:40.890Z,8.90
2017-10-24T03:21:07.342Z,9.00
2017-10-24T03:23:33.827Z,9.00
2017-10-24T03:26:00.239Z,9.00
2017-10-24T03:28:26.702Z,9.00
2017-10-24T03:30:53.167Z,8.90
2017-10-24T03:33:20.348Z,8.90
2017-10-24T03:35:46.816Z,8.80
2017-10-24T03:38:13.239Z,8.80
2017-10-24T03:40:39.703Z,8.80
2017-10-24T03:43:06.115Z,8.90
2017-10-24T03:45:32.556Z,8.90
2017-10-24T03:47:59.027Z,9.00
2017-10-24T03:50:25.464Z,9.00
2017-10-24T03:52:51.964Z,9.00
2017-10-24T03:55:18.414Z,9.10
2017-10-24T03:57:44.831Z,9.10
2017-10-24T04:00:11.275Z,9.00
2017-10-24T04:02:38.200Z,9.10
2017-10-24T04:05:05.412Z,9.10
2017-10-24T04:07:31.879Z,9.10
2017-10-24T04:09:58.356Z,9.10
2017-10-24T04:12:24.808Z,9.20
2017-10-24T04:14:51.297Z,9.20
2017-10-24T04:17:17.760Z,9.20
2017-10-24T04:19:44.171Z,9.20
2017-10-24T04:22:10.658Z,9.20
2017-10-24T04:24:37.152Z,9.20
2017-10-24T04:27:03.644Z,9.20
2017-10-24T04:29:30.190Z,9.30
2017-10-24T04:31:56.627Z,9.30
2017-10-24T04:34:23.063Z,9.20
2017-10-24T04:36:49.535Z,9.20
2017-10-24T04:39:16.004Z,9.20
2017-10-24T04:41:43.218Z,9.20
2017-10-24T04:44:09.691Z,9.20
2017-10-24T04:46:36.868Z,9.30
2017-10-24T04:49:03.434Z,9.20
2017-10-24T04:51:29.933Z,9.20
2017-10-24T04:53:57.116Z,9.10
2017-10-24T04:56:23.663Z,9.10
2017-10-24T04:58:50.079Z,9.30
2017-10-24T05:01:17.247Z,9.30
2017-10-24T05:03:43.716Z,9.20
2017-10-24T05:06:10.137Z,9.30
2017-10-24T05:08:36.595Z,9.30
2017-10-24T05:11:03.024Z,9.20
2017-10-24T05:13:29.504Z,9.20
2017-10-24T05:15:55.994Z,9.20
2017-10-24T05:18:22.424Z,9.30
2017-10-24T05:20:48.864Z,9.30
2017-10-24T05:23:15.410Z,9.30
2017-10-24T05:25:42.003Z,9.30
2017-10-24T05:28:08.465Z,9.30
2017-10-24T05:30:35.757Z,9.30
2017-10-24T05:33:02.212Z,9.30
2017-10-24T05:35:28.681Z,9.30
2017-10-24T05:37:55.186Z,9.30
2017-10-24T05:40:21.727Z,9.30
2017-10-24T05:42:48.218Z,9.30
2017-10-24T05:45:15.403Z,9.40
2017-10-24T05:47:41.859Z,9.40
2017-10-24T05:50:08.264Z,9.40
2017-10-24T05:52:34.702Z,9.50
2017-10-24T05:55:01.169Z,9.50
2017-10-24T05:57:27.684Z,9.50
2017-10-24T05:59:54.171Z,9.50
2017-10-24T06:02:20.613Z,9.50
2017-10-24T06:04:54.089Z,9.60
2017-10-24T06:07:20.527Z,9.50
2017-10-24T06:09:47.024Z,9.60
2017-10-24T06:12:14.410Z,9.80
2017-10-24T06:14:40.832Z,9.70
2017-10-24T06:17:07.422Z,9.80
2017-10-24T06:19:33.884Z,9.90
2017-10-24T06:22:01.120Z,10.00
2017-10-24T06:24:27.689Z,10.00
2017-10-24T06:26:54.220Z,10.10
2017-10-24T06:29:20.679Z,10.10
2017-10-24T06:31:47.860Z,10.30
2017-10-24T06:34:14.349Z,10.20
2017-10-24T06:36:40.781Z,10.20
2017-10-24T06:39:07.228Z,10.20
2017-10-24T06:41:33.908Z,10.30
2017-10-24T06:44:00.336Z,10.30
2017-10-24T06:46:27.535Z,10.40
2017-10-24T06:48:53.990Z,10.40
2017-10-24T06:51:20.446Z,10.40
2017-10-24T06:53:46.927Z,10.50
2017-10-24T06:56:13.376Z,10.50
2017-10-24T06:58:39.840Z,10.70
2017-10-24T07:01:06.287Z,10.60
2017-10-24T07:03:32.771Z,10.60
2017-10-24T07:05:59.958Z,10.50
2017-10-24T07:08:26.396Z,10.40
2017-10-24T07:10:52.847Z,10.40
2017-10-24T07:13:19.289Z,10.40
2017-10-24T07:15:45.734Z,10.40
2017-10-24T07:18:12.191Z,10.30
2017-10-24T07:20:38.692Z,10.30
2017-10-24T07:23:05.112Z,10.40
2017-10-24T07:25:31.578Z,10.50
2017-10-24T07:27:58.079Z,10.60
2017-10-24T07:30:24.536Z,10.60
2017-10-24T07:32:50.975Z,10.70
2017-10-24T07:35:17.421Z,10.80
2017-10-24T07:37:44.040Z,10.90
2017-10-24T07:40:10.488Z,11.00
2017-10-24T07:42:36.937Z,11.10
2017-10-24T07:45:03.432Z,11.20
2017-10-24T07:47:30.638Z,11.40
2017-10-24T07:49:57.137Z,11.40
2017-10-24T07:52:24.322Z,11.70
2017-10-24T07:54:50.795Z,11.70
2017-10-24T07:57:17.256Z,11.70
2017-10-24T07:59:43.866Z,11.70
2017-10-24T08:02:10.474Z,11.70
2017-10-24T08:04:36.907Z,11.80
2017-10-24T08:07:03.504Z,11.80
2017-10-24T08:09:29.961Z,11.80
2017-10-24T08:11:56.628Z,11.80
2017-10-24T08:14:23.855Z,11.80
2017-10-24T08:16:50.296Z,11.80
2017-10-24T08:19:16.756Z,11.70
2017-10-24T08:21:43.958Z,11.70
2017-10-24T08:24:10.435Z,11.60
2017-10-24T08:26:36.909Z,11.60
2017-10-24T08:29:03.377Z,11.70
2017-10-24T08:31:29.858Z,11.70
2017-10-24T08:33:56.311Z,11.60
2017-10-24T08:36:23.533Z,11.60
2017-10-24T08:38:50.020Z,11.50
2017-10-24T08:41:16.536Z,11.50
2017-10-24T08:43:43.735Z,11.50
2017-10-24T08:46:10.273Z,11.50
2017-10-24T08:48:36.750Z,11.40
2017-10-24T08:51:03.177Z,11.50
2017-10-24T08:53:29.824Z,11.50
2017-10-24T08:55:56.301Z,11.50
2017-10-24T08:58:23.671Z,11.60
2017-10-24T09:00:50.879Z,11.60
2017-10-24T09:03:17.316Z,11.60
2017-10-24T09:06:04.817Z,11.70
2017-10-24T09:08:41.727Z,11.80
2017-10-24T09:11:16.167Z,11.80
2017-10-24T09:14:04.428Z,12.00
2017-10-24T09:22:38.381Z,12.40
2017-10-24T09:25:04.907Z,12.60
2017-10-24T09:27:31.394Z,12.90
2017-10-24T09:29:58.075Z,12.90
2017-10-24T09:32:39.476Z,13.00
2017-10-24T09:35:06.003Z,13.00
2017-10-24T09:37:32.463Z,13.20
2017-10-24T09:39:58.955Z,13.40
2017-10-24T09:42:26.115Z,13.50
2017-10-24T09:44:53.281Z,13.50
2017-10-24T09:47:19.878Z,13.50
2017-10-24T09:49:56.303Z,13.60
2017-10-24T09:52:22.780Z,13.70
2017-10-24T09:54:49.227Z,13.80
2017-10-24T09:57:15.851Z,13.70
2017-10-24T09:59:42.360Z,13.80
2017-10-24T10:02:09.882Z,13.90
2017-10-24T10:04:37.078Z,14.20
2017-10-24T10:07:03.616Z,14.20
2017-10-24T10:09:30.148Z,14.30
2017-10-24T10:11:56.628Z,14.30
2017-10-24T10:14:23.082Z,14.10
2017-10-24T10:16:49.554Z,14.20
2017-10-24T10:19:17.676Z,14.40
2017-10-24T10:21:54.410Z,14.40
2017-10-24T10:24:36.474Z,14.40
2017-10-24T10:27:02.949Z,14.40
2017-10-24T10:29:29.436Z,14.70
2017-10-24T10:31:55.884Z,14.90
2017-10-24T10:34:22.336Z,15.10
2017-10-24T10:36:48.787Z,15.40
2017-10-24T10:39:16.095Z,15.30
2017-10-24T10:41:42.566Z,15.30
2017-10-24T10:44:09.007Z,15.30
2017-10-24T10:46:35.456Z,15.60
2017-10-24T10:49:01.887Z,15.50
2017-10-24T10:51:28.337Z,15.30
2017-10-24T10:53:55.612Z,15.00
2017-10-24T10:56:22.091Z,14.90
2017-10-24T10:58:48.535Z,14.80
2017-10-24T11:01:14.993Z,14.60
2017-10-24T11:03:41.476Z,14.70
2017-10-24T11:06:07.990Z,14.80
2017-10-24T11:08:35.175Z,14.80
2017-10-24T11:11:01.692Z,14.70
2017-10-24T11:13:28.896Z,15.40
2017-10-24T11:15:55.364Z,15.40
2017-10-24T11:18:21.898Z,16.10
2017-10-24T11:20:48.351Z,16.80
2017-10-24T11:23:14.816Z,16.80
2017-10-24T11:25:42.010Z,16.30
2017-10-24T11:28:08.517Z,16.30
2017-10-24T11:30:34.920Z,16.40
2017-10-24T11:33:01.757Z,17.10
2017-10-24T11:35:28.202Z,17.90
2017-10-24T11:37:55.413Z,19.50
2017-10-24T11:40:21.913Z,19.40
2017-10-24T11:42:49.119Z,18.40
2017-10-24T11:45:15.596Z,18.40
2017-10-24T11:47:42.039Z,17.50
2017-10-24T11:50:08.516Z,17.10
2017-10-24T11:52:34.956Z,16.80
2017-10-24T11:55:01.438Z,16.60
2017-10-24T11:57:27.913Z,16.20
2017-10-24T11:59:55.072Z,15.90
2017-10-24T12:02:22.326Z,15.90
2017-10-24T12:04:49.497Z,16.00
2017-10-24T12:07:15.964Z,16.00
2017-10-24T12:09:42.424Z,16.10
2017-10-24T12:12:08.852Z,16.10
2017-10-24T12:14:35.303Z,16.30
2017-10-24T12:17:01.782Z,16.40
2017-10-24T12:19:29.002Z,16.30
2017-10-24T12:21:55.507Z,16.30
2017-10-24T12:24:21.961Z,16.40
2017-10-24T12:26:48.470Z,16.40
2017-10-24T12:29:14.887Z,16.50
2017-10-24T12:31:42.069Z,16.80
2017-10-24T12:34:08.547Z,16.80
2017-10-24T12:36:35.005Z,17.30
2017-10-24T12:39:02.216Z,17.50
2017-10-24T12:41:28.664Z,17.50
2017-10-24T12:43:55.178Z,17.40
2017-10-24T12:46:28.576Z,17.20
2017-10-24T12:48:55.907Z,17.30
2017-10-24T12:51:23.127Z,17.30
2017-10-24T12:53:49.555Z,17.30
2017-10-24T12:56:16.065Z,17.10
2017-10-24T12:58:43.629Z,17.20
2017-10-24T13:01:10.066Z,16.90
2017-10-24T13:03:36.508Z,16.90
2017-10-24T13:06:02.955Z,16.80
2017-10-24T13:08:29.375Z,16.60
2017-10-24T13:10:56.603Z,16.50
2017-10-24T13:13:24.527Z,16.90
2017-10-24T13:15:50.956Z,16.90
2017-10-24T13:18:17.395Z,17.40
2017-10-24T13:20:50.791Z,18.40
2017-10-24T13:23:17.256Z,18.90
2017-10-24T13:25:43.675Z,18.60
2017-10-24T13:28:10.155Z,18.50
2017-10-24T13:30:36.589Z,18.30
2017-10-24T13:33:03.029Z,17.90
2017-10-24T13:35:29.501Z,17.40
2017-10-24T13:37:56.683Z,16.90
2017-10-24T13:40:23.183Z,16.90
2017-10-24T13:42:49.661Z,17.10
2017-10-24T13:45:16.189Z,17.30
2017-10-24T13:47:43.616Z,18.60
2017-10-24T13:50:10.816Z,18.60
2017-10-24T13:52:37.333Z,18.60
2017-10-24T13:55:04.577Z,18.50
2017-10-24T13:57:31.072Z,18.50
2017-10-24T13:59:57.529Z,17.90
2017-10-24T14:02:24.309Z,17.40
2017-10-24T14:04:59.063Z,17.00
2017-10-24T14:07:31.527Z,17.00
2017-10-24T14:10:04.748Z,17.10
2017-10-24T14:12:31.238Z,17.10
2017-10-24T14:14:58.921Z,17.00
2017-10-24T14:17:26.114Z,16.90
2017-10-24T14:19:52.568Z,16.80
2017-10-24T14:22:19.133Z,16.50
2017-10-24T14:24:45.611Z,16.30
2017-10-24T14:27:12.262Z,16.50
2017-10-24T14:29:38.782Z,17.10
2017-10-24T14:32:06.130Z,17.60
2017-10-24T14:34:32.603Z,17.50
2017-10-24T14:36:59.065Z,17.60
2017-10-24T14:39:25.536Z,17.40
2017-10-24T14:41:51.992Z,17.10
2017-10-24T14:44:19.214Z,17.00
2017-10-24T14:46:45.694Z,17.00
2017-10-24T14:49:12.888Z,16.70
2017-10-24T14:51:39.393Z,16.70
2017-10-24T14:54:06.631Z,16.30
2017-10-24T14:56:33.891Z,16.30
2017-10-24T14:59:00.569Z,16.10
2017-10-24T15:01:27.002Z,16.60
2017-10-24T15:03:53.520Z,16.80
2017-10-24T15:06:20.709Z,18.30
2017-10-24T15:08:47.180Z,18.30
2017-10-24T15:11:13.671Z,19.00
2017-10-24T15:13:40.852Z,20.30
2017-10-24T15:16:07.355Z,20.30
2017-10-24T15:18:34.590Z,20.40
2017-10-24T15:21:01.111Z,20.40
2017-10-24T15:23:27.632Z,20.50
2017-10-24T15:25:54.071Z,20.30
2017-10-24T15:28:20.591Z,19.70
2017-10-24T15:30:47.059Z,19.50
2017-10-24T15:33:13.570Z,18.90
2017-10-24T15:35:40.103Z,18.30
2017-10-24T15:38:07.307Z,17.20
2017-10-24T15:40:33.766Z,17.20
2017-10-24T15:43:01.009Z,16.30
2017-10-24T15:45:42.416Z,16.30
2017-10-24T15:48:08.883Z,16.00
2017-10-24T15:50:35.341Z,15.60
2017-10-24T15:53:01.780Z,15.30
2017-10-24T15:55:28.280Z,15.20
2017-10-24T15:57:55.716Z,14.60
2017-10-24T16:00:22.183Z,14.60
2017-10-24T16:02:49.412Z,14.20
2017-10-24T16:05:15.934Z,14.20
2017-10-24T16:07:42.448Z,14.10
2017-10-24T16:10:08.945Z,14.00
2017-10-24T16:12:35.492Z,13.90
2017-10-24T16:15:02.735Z,13.80
2017-10-24T16:17:29.197Z,13.80
2017-10-24T16:19:56.588Z,13.70
2017-10-24T16:22:24.090Z,13.60
2017-10-24T16:24:50.560Z,13.60
2017-10-24T16:27:17.958Z,13.30
2017-10-24T16:29:44.480Z,13.30
2017-10-24T16:32:11.076Z,13.00
2017-10-24T16:34:37.522Z,12.80
2017-10-24T16:37:04.835Z,12.60
2017-10-24T16:39:31.326Z,12.60
2017-10-24T16:41:58.554Z,12.60
2017-10-24T16:44:25.095Z,12.60
2017-10-24T16:46:51.611Z,12.60
2017-10-24T16:49:18.221Z,12.60
2017-10-24T16:51:45.481Z,12.50
2017-10-24T16:54:12.689Z,12.50
2017-10-24T16:56:39.157Z,12.40
2017-10-24T16:59:06.603Z,12.50
2017-10-24T17:01:33.998Z,12.50
2017-10-24T17:04:00.589Z,12.40
2017-10-24T17:06:27.048Z,12.50
2017-10-24T17:08:53.543Z,12.50
2017-10-24T17:11:20.182Z,12.50
2017-10-24T17:13:46.832Z,12.50
2017-10-24T17:16:13.379Z,12.50
2017-10-24T17:18:39.909Z,12.60
2017-10-24T17:21:06.488Z,12.60
2017-10-24T17:23:32.916Z,12.50
2017-10-24T17:25:59.488Z,12.50
2017-10-24T17:28:26.092Z,12.50
2017-10-24T17:30:52.647Z,12.60
2017-10-24T17:33:19.175Z,12.50
2017-10-24T17:35:45.671Z,12.50
2017-10-24T17:38:13.077Z,12.50
2017-10-24T17:40:54.436Z,12.50
2017-10-24T17:43:20.906Z,12.50
2017-10-24T17:45:47.384Z,12.40
2017-10-24T17:48:15.133Z,12.30
2017-10-24T17:50:41.604Z,12.30
2017-10-24T17:53:08.806Z,12.10
2017-10-24T17:55:35.332Z,12.10
2017-10-24T17:58:01.917Z,12.10
2017-10-24T18:00:29.177Z,12.00
2017-10-24T18:02:55.965Z,12.00
2017-10-24T18:05:22.865Z,12.00
2017-10-24T18:07:49.363Z,12.00
2017-10-24T18:10:30.802Z,12.00
2017-10-24T18:12:58.051Z,11.80
2017-10-24T18:15:24.543Z,11.70
2017-10-24T18:17:51.013Z,11.60
2017-10-24T18:20:17.516Z,11.40
2017-10-24T18:22:43.992Z,11.50
2017-10-24T18:25:10.479Z,11.40
2017-10-24T18:27:37.002Z,11.30
2017-10-24T18:30:04.240Z,11.20
2017-10-24T18:32:30.750Z,11.20
2017-10-24T18:34:57.244Z,11.10
2017-10-24T18:37:24.918Z,11.00
2017-10-24T18:39:51.480Z,10.90
2017-10-24T18:42:18.068Z,10.90
2017-10-24T18:44:44.597Z,10.80
2017-10-24T18:47:12.369Z,10.80
2017-10-24T18:49:38.993Z,10.60
2017-10-24T18:52:05.563Z,10.70
2017-10-24T18:54:32.193Z,10.50
2017-10-24T18:56:58.789Z,10.40
2017-10-24T18:59:26.227Z,10.50
2017-10-24T19:01:53.490Z,10.30
2017-10-24T19:04:20.797Z,10.50
2017-10-24T19:06:47.317Z,10.50
2017-10-24T19:09:13.818Z,10.80
2017-10-24T19:11:41.090Z,10.60
2017-10-24T19:14:08.332Z,10.70
2017-10-24T19:16:36.517Z,10.90
2017-10-24T19:19:03.814Z,10.80
2017-10-24T19:21:30.401Z,10.80
2017-10-24T19:23:56.939Z,10.50
2017-10-24T19:26:23.419Z,10.30
2017-10-24T19:28:49.996Z,10.20
2017-10-24T19:31:16.635Z,10.20
2017-10-24T19:33:43.732Z,10.20
2017-10-24T19:36:25.839Z,10.20
2017-10-24T19:41:35.655Z,10.20
2017-10-24T19:44:02.394Z,10.10
2017-10-24T19:46:28.925Z,10.20
2017-10-24T19:48:55.523Z,10.20
2017-10-24T19:51:23.074Z,10.20
2017-10-24T19:53:50.259Z,10.20
2017-10-24T19:56:16.868Z,10.10
2017-10-24T19:58:43.455Z,10.10
2017-10-24T20:01:10.218Z,10.20
2017-10-24T20:03:36.888Z,10.20
2017-10-24T20:06:03.550Z,10.10
2017-10-24T20:08:30.844Z,9.90
2017-10-24T20:10:57.448Z,9.90
2017-10-24T20:13:23.978Z,9.80
2017-10-24T20:15:50.487Z,9.60
2017-10-24T20:18:17.001Z,9.60
2017-10-24T20:20:43.557Z,9.70
2017-10-24T20:23:10.188Z,9.70
2017-10-24T20:25:36.694Z,9.60
2017-10-24T20:28:03.181Z,9.70
2017-10-24T20:30:29.787Z,9.50
2017-10-24T20:32:57.434Z,9.50
2017-10-24T20:35:24.018Z,9.50
2017-10-24T20:37:50.506Z,9.60
2017-10-24T20:40:17.048Z,9.70
2017-10-24T20:42:44.537Z,9.70
2017-10-24T20:45:12.359Z,9.80
2017-10-24T20:47:39.162Z,9.80
2017-10-24T20:50:06.405Z,10.00
2017-10-24T20:52:32.864Z,10.00
2017-10-24T20:55:00.177Z,10.10
2017-10-24T20:57:26.672Z,10.10
2017-10-24T20:59:53.144Z,10.10
2017-10-24T21:02:19.671Z,10.20
2017-10-24T21:04:46.225Z,10.30
2017-10-24T21:07:12.889Z,10.30
2017-10-24T21:09:40.161Z,10.30
2017-10-24T21:12:07.444Z,10.30
2017-10-24T21:14:33.963Z,10.30
2017-10-24T21:17:01.297Z,10.50
2017-10-24T21:19:27.915Z,10.40
2017-10-24T21:21:54.418Z,10.50
2017-10-24T21:24:21.779Z,10.50
2017-10-24T21:26:49.024Z,10.40
2017-10-24T21:29:17.150Z,10.40
2017-10-24T21:31:43.671Z,10.40
2017-10-24T21:34:10.144Z,10.40
2017-10-24T21:36:36.683Z,10.30
2017-10-24T21:39:03.160Z,10.30
2017-10-24T21:41:30.392Z,10.30
2017-10-24T21:43:56.863Z,10.20
2017-10-24T21:46:24.504Z,10.30
2017-10-24T21:48:50.987Z,10.30
2017-10-24T21:51:17.584Z,10.20
2017-10-24T21:53:44.064Z,10.30
2017-10-24T21:56:10.628Z,10.20
2017-10-24T21:58:37.092Z,10.10
2017-10-24T22:01:03.660Z,10.00
2017-10-24T22:03:30.510Z,10.10
2017-10-24T22:05:57.718Z,10.00
2017-10-24T22:08:24.185Z,9.90
2017-10-24T22:10:50.670Z,9.90
2017-10-24T22:13:17.985Z,9.80
2017-10-24T22:15:44.532Z,9.70
2017-10-24T22:18:10.981Z,9.70
2017-10-24T22:20:37.455Z,9.70
2017-10-24T22:23:03.925Z,9.70
2017-10-24T22:25:30.396Z,9.70
2017-10-24T22:27:56.875Z,9.70
2017-10-24T22:30:23.317Z,9.60
2017-10-24T22:32:49.780Z,9.70
2017-10-24T22:35:16.405Z,9.60
2017-10-24T22:37:42.928Z,9.50
2017-10-24T22:40:09.397Z,9.50
2017-10-24T22:42:35.979Z,9.50
2017-10-24T22:45:02.550Z,9.50
2017-10-24T22:47:28.987Z,9.40
2017-10-24T22:49:56.193Z,9.30
2017-10-24T22:52:22.664Z,9.20
2017-10-24T22:54:49.905Z,9.30
2017-10-24T22:57:16.479Z,9.30
2017-10-24T22:59:43.887Z,9.50
2017-10-24T23:02:10.595Z,9.40
2017-10-24T23:04:37.058Z,9.50
2017-10-24T23:07:03.477Z,9.60
2017-10-24T23:09:29.964Z,9.50
2017-10-24T23:11:56.674Z,9.40
2017-10-24T23:14:23.145Z,9.50
2017-10-24T23:16:49.673Z,9.50
2017-10-24T23:19:16.199Z,9.60
2017-10-24T23:21:42.745Z,9.70
2017-10-24T23:24:09.203Z,9.70
2017-10-24T23:26:36.432Z,9.80
2017-10-24T23:29:02.919Z,9.80
2017-10-24T23:31:29.371Z,9.80
2017-10-24T23:33:56.591Z,9.90
2017-10-24T23:36:23.142Z,9.90
2017-10-24T23:38:49.624Z,9.90
2017-10-24T23:41:16.087Z,9.90
2017-10-24T23:43:42.570Z,10.00
2017-10-24T23:46:09.034Z,10.00
2017-10-24T23:48:37.048Z,10.10
2017-10-24T23:51:03.536Z,10.10
2017-10-24T23:53:30.765Z,10.10
2017-10-24T23:55:57.211Z,10.10
2017-10-24T23:58:23.700Z,10.10
